createdAt,value
2023-10-29T00:01:54.989Z,100.00
2023-10-29T00:05:58.251Z,100.00
2023-10-29T00:10:01.640Z,100.00
2023-10-29T00:14:05.230Z,100.00
2023-10-29T00:18:14.010Z,100.00
2023-10-29T00:22:18.104Z,100.00
2023-10-29T00:26:21.888Z,100.00
2023-10-29T00:30:26.081Z,100.00
2023-10-29T00:34:29.349Z,100.00
2023-10-29T00:38:32.708Z,100.00
2023-10-29T00:42:36.016Z,100.00
2023-10-29T00:46:42.003Z,100.00
2023-10-29T00:50:45.444Z,100.00
2023-10-29T00:54:50.355Z,100.00
2023-10-29T00:58:54.359Z,100.00
2023-10-29T01:02:57.858Z,100.00
2023-10-29T01:07:01.316Z,100.00
2023-10-29T01:11:07.356Z,100.00
2023-10-29T01:15:11.383Z,100.00
2023-10-29T01:19:14.672Z,100.00
2023-10-29T01:23:19.883Z,100.00
2023-10-29T01:27:23.245Z,100.00
2023-10-29T01:31:26.533Z,100.00
2023-10-29T01:35:29.818Z,100.00
2023-10-29T01:39:33.161Z,100.00
2023-10-29T01:43:36.612Z,100.00
2023-10-29T01:47:39.935Z,100.00
2023-10-29T01:51:43.340Z,100.00
2023-10-29T01:55:46.687Z,100.00
2023-10-29T01:59:50.113Z,100.00
2023-10-29T02:03:53.522Z,100.00
2023-10-29T02:07:56.911Z,100.00
2023-10-29T02:12:00.205Z,100.00
2023-10-29T02:16:04.945Z,100.00
2023-10-29T02:20:10.161Z,100.00
2023-10-29T02:24:13.460Z,100.00
2023-10-29T02:28:16.727Z,100.00
2023-10-29T02:32:20.416Z,100.00
2023-10-29T02:36:23.672Z,100.00
2023-10-29T02:40:26.885Z,100.00
2023-10-29T02:44:30.595Z,100.00
2023-10-29T02:48:34.149Z,100.00
2023-10-29T02:52:37.480Z,100.00
2023-10-29T02:56:42.081Z,100.00
2023-10-29T03:00:45.567Z,100.00
2023-10-29T03:04:49.192Z,100.00
2023-10-29T03:08:52.679Z,100.00
2023-10-29T03:12:55.973Z,100.00
2023-10-29T03:16:59.237Z,100.00
2023-10-29T03:21:02.575Z,100.00
2023-10-29T03:25:06.069Z,100.00
2023-10-29T03:29:09.392Z,100.00
2023-10-29T03:33:12.692Z,100.00
2023-10-29T03:37:16.025Z,100.00
2023-10-29T03:41:23.559Z,100.00
2023-10-29T03:45:26.860Z,100.00
2023-10-29T03:49:30.190Z,100.00
2023-10-29T03:53:33.476Z,100.00
2023-10-29T03:57:36.981Z,100.00
2023-10-29T04:01:40.259Z,100.00
2023-10-29T04:05:44.240Z,100.00
2023-10-29T04:09:47.515Z,100.00
2023-10-29T04:13:50.843Z,100.00
2023-10-29T04:17:54.228Z,100.00
2023-10-29T04:21:57.626Z,100.00
2023-10-29T04:26:00.884Z,100.00
2023-10-29T04:30:04.421Z,100.00
2023-10-29T04:34:07.759Z,100.00
2023-10-29T04:38:11.052Z,100.00
2023-10-29T04:42:14.293Z,100.00
2023-10-29T04:46:17.562Z,100.00
2023-10-29T04:50:21.007Z,100.00
2023-10-29T04:54:24.809Z,100.00
2023-10-29T04:58:28.193Z,100.00
2023-10-29T05:02:31.715Z,100.00
2023-10-29T05:06:34.992Z,100.00
2023-10-29T05:10:38.367Z,100.00
2023-10-29T05:14:41.716Z,100.00
2023-10-29T05:18:45.085Z,100.00
2023-10-29T05:22:48.336Z,100.00
2023-10-29T05:26:51.785Z,100.00
2023-10-29T05:30:55.220Z,100.00
2023-10-29T05:34:58.533Z,100.00
2023-10-29T05:39:02.889Z,100.00
2023-10-29T05:43:06.379Z,100.00
2023-10-29T05:47:09.755Z,100.00
2023-10-29T05:51:18.873Z,100.00
2023-10-29T05:55:23.936Z,100.00
2023-10-29T05:59:29.587Z,100.00
2023-10-29T06:03:35.020Z,100.00
2023-10-29T06:07:38.584Z,100.00
2023-10-29T06:11:43.142Z,100.00
2023-10-29T06:15:46.526Z,100.00
2023-10-29T06:19:49.954Z,100.00
2023-10-29T06:23:53.402Z,100.00
2023-10-29T06:27:56.765Z,100.00
2023-10-29T06:32:00.103Z,100.00
2023-10-29T06:36:03.599Z,100.00
2023-10-29T06:40:07.899Z,100.00
2023-10-29T06:44:11.138Z,100.00
2023-10-29T06:48:14.912Z,100.00
2023-10-29T06:52:18.297Z,100.00
2023-10-29T06:56:21.572Z,100.00
2023-10-29T07:00:24.878Z,100.00
2023-10-29T07:04:28.371Z,100.00
2023-10-29T07:08:31.835Z,100.00
2023-10-29T07:12:35.291Z,100.00
2023-10-29T07:16:45.448Z,100.00
2023-10-29T07:20:48.823Z,100.00
2023-10-29T07:24:52.461Z,100.00
2023-10-29T07:28:55.673Z,100.00
2023-10-29T07:32:59.120Z,100.00
2023-10-29T07:37:02.558Z,100.00
2023-10-29T07:41:06.041Z,100.00
2023-10-29T07:45:09.628Z,100.00
2023-10-29T07:49:12.939Z,100.00
2023-10-29T07:53:16.179Z,100.00
2023-10-29T07:57:19.453Z,100.00
2023-10-29T08:01:22.851Z,100.00
2023-10-29T08:05:26.152Z,100.00
2023-10-29T08:09:29.435Z,100.00
2023-10-29T08:13:32.811Z,100.00
2023-10-29T08:17:36.300Z,100.00
2023-10-29T08:21:39.605Z,100.00
2023-10-29T08:25:42.828Z,100.00
2023-10-29T08:29:46.593Z,100.00
2023-10-29T08:33:50.569Z,100.00
2023-10-29T08:37:54.593Z,100.00
2023-10-29T08:41:58.713Z,100.00
2023-10-29T08:46:03.598Z,100.00
2023-10-29T08:50:09.849Z,100.00
2023-10-29T08:54:13.599Z,100.00
2023-10-29T08:58:17.054Z,100.00
2023-10-29T09:02:20.450Z,100.00
2023-10-29T09:06:23.887Z,100.00
2023-10-29T09:10:28.350Z,100.00
2023-10-29T09:14:31.624Z,100.00
2023-10-29T09:18:34.942Z,100.00
2023-10-29T09:22:38.187Z,100.00
2023-10-29T09:26:42.502Z,100.00
2023-10-29T09:30:46.309Z,100.00
2023-10-29T09:34:49.980Z,100.00
2023-10-29T09:38:53.462Z,100.00
2023-10-29T09:42:57.349Z,100.00
2023-10-29T09:47:12.115Z,100.00
2023-10-29T09:51:15.905Z,100.00
2023-10-29T09:55:21.370Z,100.00
2023-10-29T09:59:25.192Z,100.00
2023-10-29T10:03:28.834Z,100.00
2023-10-29T10:07:32.898Z,100.00
2023-10-29T10:11:37.423Z,100.00
2023-10-29T10:15:40.874Z,100.00
2023-10-29T10:19:44.213Z,100.00
2023-10-29T10:23:58.002Z,100.00
2023-10-29T10:28:03.668Z,100.00
2023-10-29T10:32:08.200Z,100.00
2023-10-29T10:36:11.687Z,100.00
2023-10-29T10:40:27.598Z,100.00
2023-10-29T10:44:32.101Z,100.00
2023-10-29T10:48:37.630Z,100.00
2023-10-29T10:52:41.223Z,100.00
2023-10-29T10:56:45.242Z,100.00
2023-10-29T11:00:50.706Z,99.87
2023-10-29T11:04:55.772Z,99.84
2023-10-29T11:09:03.167Z,99.53
2023-10-29T11:13:21.577Z,99.38
2023-10-29T11:17:57.784Z,99.09
2023-10-29T11:22:14.446Z,98.34
2023-10-29T11:26:22.762Z,98.04
2023-10-29T11:30:29.949Z,97.53
2023-10-29T11:34:34.762Z,97.02
2023-10-29T11:38:40.608Z,96.74
2023-10-29T11:42:45.906Z,96.57
2023-10-29T11:47:04.850Z,96.25
2023-10-29T11:51:10.273Z,96.05
2023-10-29T11:55:13.776Z,95.68
2023-10-29T12:04:54.027Z,94.24
2023-10-29T12:08:57.852Z,94.10
2023-10-29T12:13:01.135Z,94.10
2023-10-29T12:17:05.271Z,93.54
2023-10-29T12:21:11.087Z,93.15
2023-10-29T12:25:16.058Z,92.75
2023-10-29T12:29:19.364Z,92.52
2023-10-29T12:33:30.964Z,92.29
2023-10-29T12:37:34.399Z,91.88
2023-10-29T12:41:37.606Z,91.55
2023-10-29T12:45:40.902Z,91.12
2023-10-29T12:49:44.278Z,90.86
2023-10-29T12:53:47.605Z,90.77
2023-10-29T12:57:54.024Z,90.51
2023-10-29T13:02:01.871Z,90.25
2023-10-29T13:06:05.438Z,90.19
2023-10-29T13:10:09.088Z,90.29
2023-10-29T13:14:12.570Z,90.11
2023-10-29T13:18:16.058Z,90.13
2023-10-29T13:22:19.359Z,90.11
2023-10-29T13:26:23.344Z,90.12
2023-10-29T13:30:27.102Z,89.93
2023-10-29T13:34:30.421Z,89.94
2023-10-29T13:38:33.764Z,89.72
2023-10-29T13:42:37.137Z,89.73
2023-10-29T13:46:40.435Z,89.75
2023-10-29T13:50:44.137Z,89.76
2023-10-29T13:54:47.601Z,89.41
2023-10-29T13:58:51.309Z,89.33
2023-10-29T14:02:58.003Z,89.24
2023-10-29T14:07:02.430Z,89.22
2023-10-29T14:11:06.810Z,89.23
2023-10-29T14:15:10.873Z,89.11
2023-10-29T14:19:14.165Z,88.93
2023-10-29T14:23:17.535Z,88.86
2023-10-29T14:27:20.921Z,88.90
2023-10-29T14:31:24.456Z,88.79
2023-10-29T14:35:27.725Z,88.87
2023-10-29T14:39:31.019Z,88.70
2023-10-29T14:43:34.278Z,88.80
2023-10-29T14:47:37.739Z,88.79
2023-10-29T14:51:41.198Z,89.16
2023-10-29T14:55:48.839Z,89.19
2023-10-29T14:59:52.252Z,89.42
2023-10-29T15:03:56.568Z,89.69
2023-10-29T15:07:59.935Z,89.75
2023-10-29T15:12:04.960Z,89.99
2023-10-29T15:16:08.360Z,90.11
2023-10-29T15:20:12.798Z,90.21
2023-10-29T15:24:16.278Z,90.07
2023-10-29T15:28:19.584Z,90.33
2023-10-29T15:32:23.202Z,90.53
2023-10-29T15:36:26.526Z,90.84
2023-10-29T15:40:29.816Z,90.97
2023-10-29T15:44:33.255Z,91.03
2023-10-29T15:48:36.893Z,91.20
2023-10-29T15:52:40.354Z,91.39
2023-10-29T15:56:45.254Z,91.62
2023-10-29T16:00:49.101Z,91.76
2023-10-29T16:04:52.801Z,91.94
2023-10-29T16:08:56.202Z,91.91
2023-10-29T16:12:59.516Z,92.18
2023-10-29T16:17:03.077Z,92.30
2023-10-29T16:21:06.819Z,92.47
2023-10-29T16:25:10.381Z,92.61
2023-10-29T16:29:13.881Z,92.82
2023-10-29T16:33:17.354Z,93.02
2023-10-29T16:37:21.928Z,93.18
2023-10-29T16:41:25.547Z,93.36
2023-10-29T16:45:29.296Z,93.54
2023-10-29T16:49:33.416Z,93.76
2023-10-29T16:53:38.996Z,93.93
2023-10-29T16:57:42.702Z,94.04
2023-10-29T17:01:47.217Z,94.34
2023-10-29T17:05:50.779Z,94.64
2023-10-29T17:09:56.566Z,94.87
2023-10-29T17:14:00.164Z,95.15
2023-10-29T17:18:04.713Z,95.37
2023-10-29T17:22:08.929Z,95.57
2023-10-29T17:26:20.182Z,95.66
2023-10-29T17:30:24.250Z,95.75
2023-10-29T17:34:27.850Z,95.83
2023-10-29T17:38:31.484Z,95.86
2023-10-29T17:42:35.484Z,95.90
2023-10-29T17:46:39.130Z,95.86
2023-10-29T17:50:43.903Z,95.76
2023-10-29T17:54:47.928Z,95.62
2023-10-29T17:58:52.755Z,95.41
2023-10-29T18:02:56.540Z,95.45
2023-10-29T18:07:00.497Z,95.62
2023-10-29T18:11:04.279Z,95.74
2023-10-29T18:15:08.196Z,95.69
2023-10-29T18:19:11.701Z,95.88
2023-10-29T18:23:15.410Z,95.95
2023-10-29T18:27:19.199Z,96.02
2023-10-29T18:31:23.043Z,95.94
2023-10-29T18:35:27.152Z,95.99
2023-10-29T18:39:31.021Z,96.16
2023-10-29T18:43:34.477Z,96.45
2023-10-29T18:47:38.027Z,96.55
2023-10-29T18:51:41.771Z,96.66
2023-10-29T18:55:45.499Z,96.64
2023-10-29T18:59:49.285Z,96.81
2023-10-29T19:03:53.157Z,96.95
2023-10-29T19:07:56.795Z,97.18
2023-10-29T19:12:00.951Z,97.15
2023-10-29T19:16:07.775Z,97.35
2023-10-29T19:20:11.887Z,97.62
2023-10-29T19:24:17.305Z,97.66
2023-10-29T19:28:22.388Z,97.71
2023-10-29T19:32:25.949Z,97.82
2023-10-29T19:36:29.666Z,97.73
2023-10-29T19:40:33.755Z,97.76
2023-10-29T19:44:38.259Z,97.85
2023-10-29T19:48:41.928Z,97.89
2023-10-29T19:52:45.685Z,97.93
2023-10-29T19:56:49.308Z,97.94
2023-10-29T20:01:05.569Z,97.98
2023-10-29T20:05:10.855Z,97.95
2023-10-29T20:09:15.444Z,98.07
2023-10-29T20:13:19.106Z,98.08
2023-10-29T20:17:22.724Z,98.00
2023-10-29T20:21:27.968Z,98.11
2023-10-29T20:25:31.688Z,98.24
2023-10-29T20:29:36.283Z,98.46
2023-10-29T20:33:39.945Z,98.49
2023-10-29T20:37:43.544Z,98.67
2023-10-29T20:41:47.078Z,98.75
2023-10-29T20:45:54.398Z,98.84
2023-10-29T20:49:57.916Z,98.85
2023-10-29T20:54:01.426Z,98.64
2023-10-29T20:58:04.950Z,98.36
2023-10-29T21:02:09.032Z,98.46
2023-10-29T21:06:14.761Z,98.53
2023-10-29T21:10:19.936Z,98.54
2023-10-29T21:14:23.376Z,98.93
2023-10-29T21:18:30.203Z,99.06
2023-10-29T21:22:34.096Z,99.18
2023-10-29T21:26:37.479Z,99.35
2023-10-29T21:30:44.280Z,99.10
2023-10-29T21:34:47.981Z,98.98
2023-10-29T21:38:51.332Z,99.04
2023-10-29T21:42:54.707Z,99.05
2023-10-29T21:46:57.996Z,99.01
2023-10-29T21:51:02.433Z,99.33
2023-10-29T21:55:06.191Z,99.81
2023-10-29T21:59:09.525Z,99.94
2023-10-29T22:03:12.888Z,99.92
2023-10-29T22:07:16.493Z,99.86
2023-10-29T22:11:20.337Z,99.88
2023-10-29T22:15:27.848Z,99.89
2023-10-29T22:19:31.293Z,99.70
2023-10-29T22:23:35.888Z,99.80
2023-10-29T22:27:39.354Z,99.94
2023-10-29T22:31:42.662Z,100.00
2023-10-29T22:35:46.028Z,99.99
2023-10-29T22:39:49.931Z,100.00
2023-10-29T22:43:54.902Z,100.00
2023-10-29T22:47:58.192Z,100.00
2023-10-29T22:52:01.579Z,100.00
2023-10-29T22:56:05.269Z,100.00
2023-10-29T23:00:13.715Z,100.00
2023-10-29T23:04:19.499Z,100.00
2023-10-29T23:08:22.935Z,100.00
2023-10-29T23:12:26.504Z,100.00
2023-10-29T23:16:30.888Z,100.00
2023-10-29T23:20:34.210Z,100.00
2023-10-29T23:24:37.690Z,100.00
2023-10-29T23:28:41.248Z,100.00
2023-10-29T23:32:44.604Z,100.00
2023-10-29T23:36:47.959Z,100.00
2023-10-29T23:40:51.249Z,100.00
2023-10-29T23:44:55.968Z,100.00
2023-10-29T23:48:59.317Z,100.00
2023-10-29T23:53:02.677Z,100.00
2023-10-29T23:57:05.935Z,100.00
